createdAt,value
2023-12-15T00:01:10.994Z,101115.09
2023-12-15T00:03:38.637Z,101128.06
2023-12-15T00:06:06.726Z,101124.91
2023-12-15T00:08:34.390Z,101132.66
2023-12-15T00:11:02.357Z,101130.59
2023-12-15T00:13:29.998Z,101135.94
2023-12-15T00:15:57.545Z,101138.38
2023-12-15T00:18:26.570Z,101141.03
2023-12-15T00:20:54.245Z,101146.34
2023-12-15T00:23:22.061Z,101145.44
2023-12-15T00:25:49.739Z,101150.53
2023-12-15T00:28:17.340Z,101154.78
2023-12-15T00:30:44.997Z,101149.28
2023-12-15T00:33:12.727Z,101146.34
2023-12-15T00:35:41.689Z,101153.81
2023-12-15T00:38:09.314Z,101153.44
2023-12-15T00:40:36.874Z,101158.53
2023-12-15T00:43:04.519Z,101156.78
2023-12-15T00:45:32.140Z,101166.41
2023-12-15T00:47:59.768Z,101171.63
2023-12-15T00:50:29.894Z,101172.31
2023-12-15T00:52:59.276Z,101175.63
2023-12-15T00:55:26.835Z,101185.84
2023-12-15T00:57:54.447Z,101179.78
2023-12-15T01:00:22.964Z,101179.19
2023-12-15T01:02:50.589Z,101189.41
2023-12-15T01:05:18.193Z,101198.16
2023-12-15T01:07:49.490Z,101192.94
2023-12-15T01:10:19.078Z,101201.59
2023-12-15T01:12:46.838Z,101205.13
2023-12-15T01:15:14.510Z,101204.31
2023-12-15T01:17:42.499Z,101209.44
2023-12-15T01:20:11.592Z,101208.47
2023-12-15T01:22:39.283Z,101223.09
2023-12-15T01:25:07.775Z,101218.78
2023-12-15T01:27:36.888Z,101221.16
2023-12-15T01:30:05.204Z,101221.03
2023-12-15T01:32:32.914Z,101228.53
2023-12-15T01:35:01.000Z,101230.88
2023-12-15T01:37:28.909Z,101235.88
2023-12-15T01:39:56.494Z,101242.75
2023-12-15T01:42:24.172Z,101242.75
2023-12-15T01:44:53.058Z,101250.50
2023-12-15T01:47:22.666Z,101245.22
2023-12-15T01:49:50.490Z,101248.56
2023-12-15T01:52:18.161Z,101252.84
2023-12-15T01:54:45.794Z,101253.56
2023-12-15T01:57:14.152Z,101257.34
2023-12-15T01:59:45.799Z,101255.59
2023-12-15T02:02:15.230Z,101262.06
2023-12-15T02:04:43.328Z,101263.16
2023-12-15T02:07:11.063Z,101266.69
2023-12-15T02:09:39.577Z,101272.88
2023-12-15T02:12:08.280Z,101276.63
2023-12-15T02:14:36.068Z,101277.50
2023-12-15T02:17:03.732Z,101289.50
2023-12-15T02:19:32.807Z,101283.72
2023-12-15T02:22:00.425Z,101283.16
2023-12-15T02:24:29.403Z,101286.59
2023-12-15T02:26:57.471Z,101280.78
2023-12-15T02:29:27.858Z,101272.13
2023-12-15T02:31:55.598Z,101283.41
2023-12-15T02:34:22.333Z,101282.34
2023-12-15T02:36:50.827Z,101290.81
2023-12-15T02:39:18.446Z,101282.13
2023-12-15T02:41:47.551Z,101298.34
2023-12-15T02:44:15.240Z,101301.91
2023-12-15T02:46:42.855Z,101301.13
2023-12-15T02:49:10.757Z,101301.78
2023-12-15T02:51:38.384Z,101307.91
2023-12-15T02:54:06.127Z,101307.91
2023-12-15T02:56:33.761Z,101311.44
2023-12-15T02:59:02.697Z,101313.78
2023-12-15T03:01:30.277Z,101310.22
2023-12-15T03:03:57.991Z,101307.59
2023-12-15T03:06:25.657Z,101304.94
2023-12-15T03:08:53.309Z,101304.50
2023-12-15T03:11:21.055Z,101305.13
2023-12-15T03:13:48.738Z,101316.09
2023-12-15T03:16:17.808Z,101316.88
2023-12-15T03:18:45.389Z,101312.66
2023-12-15T03:21:13.065Z,101326.44
2023-12-15T03:23:40.625Z,101325.53
2023-12-15T03:26:08.584Z,101333.22
2023-12-15T03:28:36.268Z,101333.88
2023-12-15T03:31:03.870Z,101336.34
2023-12-15T03:33:37.402Z,101330.44
2023-12-15T03:36:05.854Z,101342.41
2023-12-15T03:38:34.948Z,101339.06
2023-12-15T03:41:02.612Z,101338.88
2023-12-15T03:43:30.323Z,101341.53
2023-12-15T03:45:57.926Z,101338.88
2023-12-15T03:48:25.581Z,101346.31
2023-12-15T03:50:54.533Z,101344.78
2023-12-15T03:53:22.166Z,101347.13
2023-12-15T03:55:49.792Z,101348.09
2023-12-15T03:58:17.392Z,101352.44
2023-12-15T04:00:45.033Z,101346.31
2023-12-15T04:03:12.606Z,101362.66
2023-12-15T04:05:40.371Z,101359.31
2023-12-15T04:08:09.598Z,101354.38
2023-12-15T04:10:37.258Z,101359.72
2023-12-15T04:13:04.822Z,101361.28
2023-12-15T04:15:32.452Z,101357.94
2023-12-15T04:18:00.132Z,101362.66
2023-12-15T04:20:27.920Z,101366.88
2023-12-15T04:22:55.571Z,101371.97
2023-12-15T04:25:24.502Z,101371.97
2023-12-15T04:27:52.142Z,101383.09
2023-12-15T04:30:19.874Z,101383.09
2023-12-15T04:32:47.539Z,101382.19
2023-12-15T04:35:15.359Z,101391.31
2023-12-15T04:37:44.976Z,101391.31
2023-12-15T04:40:14.220Z,101386.38
2023-12-15T04:42:43.257Z,101400.16
2023-12-15T04:45:11.600Z,101396.81
2023-12-15T04:47:39.358Z,101399.47
2023-12-15T04:50:08.840Z,101399.38
2023-12-15T04:52:36.536Z,101409.59
2023-12-15T04:55:04.484Z,101412.16
2023-12-15T04:57:32.032Z,101412.94
2023-12-15T05:00:01.165Z,101417.03
2023-12-15T05:02:28.770Z,101428.91
2023-12-15T05:04:56.397Z,101434.81
2023-12-15T05:07:24.022Z,101440.59
2023-12-15T05:09:51.639Z,101442.47
2023-12-15T05:12:19.230Z,101445.13
2023-12-15T05:14:46.814Z,101447.00
2023-12-15T05:17:15.899Z,101453.00
2023-12-15T05:19:43.520Z,101450.44
2023-12-15T05:22:11.146Z,101453.69
2023-12-15T05:24:39.438Z,101452.13
2023-12-15T05:27:09.192Z,101465.00
2023-12-15T05:29:38.019Z,101470.31
2023-12-15T05:32:07.014Z,101477.97
2023-12-15T05:34:35.971Z,101483.19
2023-12-15T05:37:03.590Z,101482.53
2023-12-15T05:39:31.184Z,101486.06
2023-12-15T05:41:58.784Z,101487.81
2023-12-15T05:44:26.503Z,101501.81
2023-12-15T05:46:54.233Z,101501.81
2023-12-15T05:49:21.932Z,101502.69
2023-12-15T05:51:51.351Z,101498.47
2023-12-15T05:54:19.018Z,101496.69
2023-12-15T05:56:46.628Z,101499.34
2023-12-15T05:59:14.343Z,101516.47
2023-12-15T06:01:42.000Z,101520.69
2023-12-15T06:04:09.613Z,101529.25
2023-12-15T06:06:37.227Z,101537.66
2023-12-15T06:09:06.167Z,101533.28
2023-12-15T06:11:33.810Z,101538.72
2023-12-15T06:14:01.442Z,101536.34
2023-12-15T06:16:29.047Z,101546.03
2023-12-15T06:18:56.757Z,101546.50
2023-12-15T06:21:25.095Z,101555.16
2023-12-15T06:23:53.224Z,101554.75
2023-12-15T06:26:23.151Z,101553.78
2023-12-15T06:28:50.895Z,101555.13
2023-12-15T06:31:18.937Z,101555.88
2023-12-15T06:33:46.657Z,101562.47
2023-12-15T06:36:14.394Z,101566.56
2023-12-15T06:38:44.220Z,101563.06
2023-12-15T06:41:12.127Z,101572.13
2023-12-15T06:43:42.221Z,101580.09
2023-12-15T06:46:10.261Z,101581.66
2023-12-15T06:48:39.081Z,101588.78
2023-12-15T06:51:07.717Z,101594.03
2023-12-15T06:53:35.907Z,101597.66
2023-12-15T06:56:03.815Z,101602.91
2023-12-15T06:58:31.542Z,101595.84
2023-12-15T07:01:00.501Z,101601.41
2023-12-15T07:03:29.730Z,101604.53
2023-12-15T07:05:57.567Z,101610.00
2023-12-15T07:08:25.208Z,101614.22
2023-12-15T07:10:52.902Z,101620.25
2023-12-15T07:13:20.823Z,101617.38
2023-12-15T07:15:48.388Z,101616.06
2023-12-15T07:18:17.432Z,101613.91
2023-12-15T07:20:45.237Z,101625.00
2023-12-15T07:23:12.902Z,101628.53
2023-12-15T07:25:40.557Z,101625.38
2023-12-15T07:28:08.204Z,101632.44
2023-12-15T07:30:35.998Z,101635.00
2023-12-15T07:33:03.768Z,101635.97
2023-12-15T07:35:33.646Z,101639.25
2023-12-15T07:38:01.575Z,101645.34
2023-12-15T07:40:29.842Z,101652.44
2023-12-15T07:42:57.668Z,101645.25
2023-12-15T07:45:26.060Z,101653.59
2023-12-15T07:47:55.276Z,101652.25
2023-12-15T07:50:23.071Z,101662.19
2023-12-15T07:52:52.016Z,101654.22
2023-12-15T07:55:19.860Z,101656.00
2023-12-15T07:57:47.420Z,101669.38
2023-12-15T08:00:15.829Z,101669.38
2023-12-15T08:02:45.174Z,101674.72
2023-12-15T08:05:12.934Z,101678.94
2023-12-15T08:07:40.862Z,101680.53
2023-12-15T08:10:11.415Z,101678.94
2023-12-15T08:12:39.001Z,101679.50
2023-12-15T08:15:07.885Z,101684.06
2023-12-15T08:17:36.108Z,101695.19
2023-12-15T08:20:04.287Z,101690.28
2023-12-15T08:22:32.215Z,101698.84
2023-12-15T08:24:59.828Z,101703.88
2023-12-15T08:27:28.796Z,101706.78
2023-12-15T08:29:58.301Z,101713.91
2023-12-15T08:32:26.117Z,101714.09
2023-12-15T08:34:54.067Z,101710.63
2023-12-15T08:37:21.698Z,101718.28
2023-12-15T08:39:49.294Z,101722.75
2023-12-15T08:42:16.870Z,101720.44
2023-12-15T08:44:45.901Z,101720.66
2023-12-15T08:47:13.511Z,101723.72
2023-12-15T08:49:41.161Z,101734.28
2023-12-15T08:52:08.791Z,101743.63
2023-12-15T08:54:36.453Z,101740.97
2023-12-15T08:57:04.334Z,101739.81
2023-12-15T08:59:32.148Z,101736.06
2023-12-15T09:02:01.236Z,101744.75
2023-12-15T09:04:28.921Z,101738.47
2023-12-15T09:06:56.814Z,101752.91
2023-12-15T09:09:25.850Z,101746.41
2023-12-15T09:11:53.575Z,101746.41
2023-12-15T09:14:22.693Z,101745.06
2023-12-15T09:16:50.578Z,101752.03
2023-12-15T09:19:19.731Z,101760.88
2023-12-15T09:21:47.517Z,101759.69
2023-12-15T09:24:15.943Z,101758.09
2023-12-15T09:26:44.250Z,101761.75
2023-12-15T09:29:12.061Z,101770.00
2023-12-15T09:31:39.771Z,101774.22
2023-12-15T09:34:08.022Z,101776.63
2023-12-15T09:36:36.957Z,101774.13
2023-12-15T09:39:04.750Z,101769.84
2023-12-15T09:41:32.605Z,101773.38
2023-12-15T09:44:00.303Z,101772.41
2023-12-15T09:46:28.373Z,101771.44
2023-12-15T09:48:56.772Z,101769.69
2023-12-15T09:51:26.422Z,101781.00
2023-12-15T09:53:55.472Z,101784.88
2023-12-15T09:56:23.845Z,101781.53
2023-12-15T09:58:51.473Z,101780.94
2023-12-15T10:01:20.143Z,101787.22
2023-12-15T10:03:48.376Z,101785.78
2023-12-15T10:06:15.996Z,101799.00
2023-12-15T10:08:58.384Z,101804.66
2023-12-15T10:11:34.413Z,101809.00
2023-12-15T10:14:05.639Z,101812.22
2023-12-15T10:16:33.651Z,101807.00
2023-12-15T10:19:04.331Z,101815.31
2023-12-15T10:21:32.500Z,101819.44
2023-12-15T10:24:00.465Z,101823.88
2023-12-15T10:26:29.848Z,101825.56
2023-12-15T10:28:58.881Z,101826.34
2023-12-15T10:31:28.314Z,101814.13
2023-12-15T10:33:56.180Z,101811.56
2023-12-15T10:36:24.002Z,101820.84
2023-12-15T10:38:51.920Z,101810.09
2023-12-15T10:41:20.398Z,101813.34
2023-12-15T10:43:48.663Z,101812.13
2023-12-15T10:46:19.481Z,101818.94
2023-12-15T10:48:48.098Z,101820.84
2023-12-15T10:51:16.402Z,101827.91
2023-12-15T10:53:44.057Z,101824.19
2023-12-15T10:56:12.011Z,101826.53
2023-12-15T10:58:40.013Z,101825.75
2023-12-15T11:01:10.426Z,101826.34
2023-12-15T11:03:39.994Z,101835.81
2023-12-15T11:06:08.164Z,101838.66
2023-12-15T11:08:36.338Z,101836.66
2023-12-15T11:11:06.152Z,101849.72
2023-12-15T11:13:59.237Z,101841.81
2023-12-15T11:16:29.674Z,101855.66
2023-12-15T11:19:00.889Z,101851.66
2023-12-15T11:21:29.732Z,101853.03
2023-12-15T11:24:00.822Z,101851.25
2023-12-15T11:26:30.903Z,101853.72
2023-12-15T11:29:06.999Z,101850.88
2023-12-15T11:31:35.523Z,101846.78
2023-12-15T11:34:05.425Z,101852.88
2023-12-15T11:36:42.167Z,101851.72
2023-12-15T11:39:13.258Z,101854.44
2023-12-15T11:41:41.540Z,101848.94
2023-12-15T11:44:09.430Z,101860.97
2023-12-15T11:46:37.361Z,101855.66
2023-12-15T11:49:06.385Z,101862.53
2023-12-15T11:51:35.959Z,101853.59
2023-12-15T11:54:05.067Z,101863.66
2023-12-15T11:56:33.037Z,101856.06
2023-12-15T11:59:02.313Z,101855.09
2023-12-15T12:01:36.673Z,101854.47
2023-12-15T12:04:06.259Z,101852.94
2023-12-15T12:06:34.438Z,101852.63
2023-12-15T12:09:02.118Z,101854.69
2023-12-15T12:11:30.233Z,101854.00
2023-12-15T12:14:01.944Z,101860.06
2023-12-15T12:16:29.823Z,101865.47
2023-12-15T12:18:57.876Z,101861.88
2023-12-15T12:21:29.409Z,101853.38
2023-12-15T12:23:57.113Z,101853.16
2023-12-15T12:26:24.797Z,101846.66
2023-12-15T12:28:52.974Z,101852.31
2023-12-15T12:31:21.748Z,101849.75
2023-12-15T12:33:49.681Z,101851.59
2023-12-15T12:36:18.280Z,101851.47
2023-12-15T12:38:48.468Z,101854.34
2023-12-15T12:41:16.635Z,101849.22
2023-12-15T12:43:44.405Z,101863.22
2023-12-15T12:46:13.046Z,101861.47
2023-12-15T12:48:41.179Z,101854.03
2023-12-15T12:51:09.222Z,101849.22
2023-12-15T12:53:37.148Z,101852.75
2023-12-15T12:56:10.006Z,101857.88
2023-12-15T12:58:37.852Z,101867.75
2023-12-15T13:01:05.578Z,101874.22
2023-12-15T13:03:33.558Z,101872.06
2023-12-15T13:06:01.432Z,101871.09
2023-12-15T13:08:29.390Z,101873.34
2023-12-15T13:10:57.053Z,101875.34
2023-12-15T13:13:25.989Z,101868.63
2023-12-15T13:15:53.686Z,101860.75
2023-12-15T13:18:21.589Z,101867.78
2023-12-15T13:20:49.948Z,101865.78
2023-12-15T13:23:17.742Z,101873.72
2023-12-15T13:25:45.433Z,101862.75
2023-12-15T13:28:13.132Z,101867.38
2023-12-15T13:30:44.473Z,101868.94
2023-12-15T13:33:12.424Z,101868.75
2023-12-15T13:35:40.120Z,101874.28
2023-12-15T13:38:07.803Z,101868.84
2023-12-15T13:40:35.468Z,101872.03
2023-12-15T13:43:03.199Z,101878.31
2023-12-15T13:45:30.823Z,101882.78
2023-12-15T13:47:59.966Z,101886.94
2023-12-15T13:50:29.111Z,101890.84
2023-12-15T13:52:56.801Z,101893.44
2023-12-15T13:55:25.424Z,101903.06
2023-12-15T13:57:53.944Z,101900.72
2023-12-15T14:00:22.587Z,101913.13
2023-12-15T14:02:50.397Z,101911.38
2023-12-15T14:05:19.616Z,101916.50
2023-12-15T14:07:47.863Z,101918.03
2023-12-15T14:10:16.356Z,101910.44
2023-12-15T14:12:44.224Z,101913.63
2023-12-15T14:15:12.252Z,101912.72
2023-12-15T14:17:40.226Z,101898.91
2023-12-15T14:20:09.273Z,101910.53
2023-12-15T14:22:38.509Z,101925.72
2023-12-15T14:25:07.439Z,101924.94
2023-12-15T14:27:35.990Z,101920.44
2023-12-15T14:30:06.475Z,101923.00
2023-12-15T14:32:34.564Z,101930.53
2023-12-15T14:35:03.398Z,101923.41
2023-12-15T14:37:31.432Z,101929.31
2023-12-15T14:40:00.445Z,101929.09
2023-12-15T14:42:28.049Z,101933.56
2023-12-15T14:44:55.740Z,101932.78
2023-12-15T14:47:23.567Z,101948.06
2023-12-15T14:49:51.339Z,101929.53
2023-12-15T14:52:19.024Z,101932.81
2023-12-15T14:54:46.624Z,101937.84
2023-12-15T14:57:15.720Z,101927.19
2023-12-15T14:59:43.509Z,101929.75
2023-12-15T15:02:12.298Z,101942.25
2023-12-15T15:04:40.036Z,101943.53
2023-12-15T15:07:07.866Z,101937.56
2023-12-15T15:09:35.505Z,101941.69
2023-12-15T15:12:04.179Z,101946.66
2023-12-15T15:14:34.833Z,101941.69
2023-12-15T15:17:02.516Z,101937.75
2023-12-15T15:19:31.129Z,101933.69
2023-12-15T15:21:58.801Z,101938.16
2023-12-15T15:24:26.382Z,101933.03
2023-12-15T15:26:54.114Z,101934.69
2023-12-15T15:29:21.800Z,101940.63
2023-12-15T15:31:50.745Z,101951.28
2023-12-15T15:34:19.388Z,101954.16
2023-12-15T15:36:47.157Z,101963.69
2023-12-15T15:39:18.323Z,101965.81
2023-12-15T15:41:46.077Z,101975.31
2023-12-15T15:44:21.613Z,101965.06
2023-12-15T15:46:51.570Z,101971.00
2023-12-15T15:49:19.374Z,101970.34
2023-12-15T15:51:47.032Z,101975.28
2023-12-15T15:54:16.029Z,101972.06
2023-12-15T15:56:46.926Z,101968.88
2023-12-15T15:59:14.743Z,101964.91
2023-12-15T16:01:44.048Z,101974.91
2023-12-15T16:04:13.621Z,101977.59
2023-12-15T16:06:41.693Z,101984.38
2023-12-15T16:09:09.822Z,101973.38
2023-12-15T16:11:37.473Z,101984.72
2023-12-15T16:14:10.626Z,101983.84
2023-12-15T16:16:40.136Z,101992.97
2023-12-15T16:19:08.078Z,101984.06
2023-12-15T16:21:37.440Z,101997.66
2023-12-15T16:24:07.743Z,102006.31
2023-12-15T16:26:35.385Z,102012.44
2023-12-15T16:29:03.288Z,102014.13
2023-12-15T16:31:31.229Z,102013.13
2023-12-15T16:33:59.237Z,102011.31
2023-12-15T16:36:27.111Z,102012.34
2023-12-15T16:38:56.098Z,102014.66
2023-12-15T16:41:24.893Z,102015.03
2023-12-15T16:43:52.553Z,102011.44
2023-12-15T16:46:20.213Z,102018.13
2023-12-15T16:48:53.279Z,102024.84
2023-12-15T16:51:21.450Z,102026.38
2023-12-15T16:53:49.554Z,102028.38
2023-12-15T16:56:18.625Z,102026.06
2023-12-15T16:58:46.481Z,102021.69
2023-12-15T17:01:14.562Z,102017.94
2023-12-15T17:03:43.781Z,102025.47
2023-12-15T17:06:14.132Z,102023.38
2023-12-15T17:08:43.303Z,102036.41
2023-12-15T17:11:11.444Z,102035.28
2023-12-15T17:13:40.469Z,102048.97
2023-12-15T17:16:13.691Z,102063.78
2023-12-15T17:18:41.429Z,102076.16
2023-12-15T17:21:12.744Z,102070.88
2023-12-15T17:23:40.443Z,102061.56
2023-12-15T17:26:08.066Z,102063.56
2023-12-15T17:28:35.846Z,102059.31
2023-12-15T17:31:07.099Z,102067.13
2023-12-15T17:33:34.908Z,102082.50
2023-12-15T17:36:02.630Z,102090.97
2023-12-15T17:38:30.288Z,102094.28
2023-12-15T17:40:57.869Z,102097.84
2023-12-15T17:43:25.540Z,102090.16
2023-12-15T17:45:53.498Z,102090.03
2023-12-15T17:48:22.700Z,102085.84
2023-12-15T17:50:50.761Z,102090.97
2023-12-15T17:53:18.602Z,102086.72
2023-12-15T17:55:46.253Z,102082.50
2023-12-15T17:58:14.055Z,102084.91
2023-12-15T18:00:43.116Z,102081.47
2023-12-15T18:03:11.304Z,102090.97
2023-12-15T18:05:40.403Z,102088.41
2023-12-15T18:08:08.070Z,102097.31
2023-12-15T18:10:35.691Z,102113.41
2023-12-15T18:13:03.418Z,102125.47
2023-12-15T18:15:31.460Z,102118.34
2023-12-15T18:17:59.251Z,102109.44
2023-12-15T18:20:26.938Z,102125.56
2023-12-15T18:22:56.519Z,102126.31
2023-12-15T18:25:24.230Z,102124.78
2023-12-15T18:27:52.021Z,102146.81
2023-12-15T18:30:22.521Z,102151.91
2023-12-15T18:32:50.552Z,102141.69
2023-12-15T18:35:19.022Z,102155.50
2023-12-15T18:37:46.740Z,102147.03
2023-12-15T18:40:15.787Z,102147.28
2023-12-15T18:42:44.479Z,102136.25
2023-12-15T18:45:13.198Z,102141.03
2023-12-15T18:47:41.163Z,102129.66
2023-12-15T18:50:09.780Z,102138.38
2023-12-15T18:52:37.446Z,102137.50
2023-12-15T18:55:05.676Z,102132.56
2023-12-15T18:57:46.309Z,102129.22
2023-12-15T19:00:21.786Z,102126.91
2023-12-15T19:02:50.424Z,102128.56
2023-12-15T19:05:18.167Z,102116.31
2023-12-15T19:07:46.936Z,102116.31
2023-12-15T19:10:15.000Z,102115.88
2023-12-15T19:12:46.943Z,102103.84
2023-12-15T19:15:15.075Z,102112.09
2023-12-15T19:17:43.128Z,102120.34
2023-12-15T19:20:13.822Z,102130.13
2023-12-15T19:22:44.477Z,102132.66
2023-12-15T19:25:12.141Z,102129.13
2023-12-15T19:27:40.039Z,102138.56
2023-12-15T19:30:10.183Z,102138.81
2023-12-15T19:32:37.999Z,102155.06
2023-12-15T19:35:07.038Z,102144.81
2023-12-15T19:37:34.892Z,102152.41
2023-12-15T19:40:04.965Z,102153.94
2023-12-15T19:42:33.015Z,102160.63
2023-12-15T19:45:01.160Z,102167.28
2023-12-15T19:47:30.096Z,102159.06
2023-12-15T19:49:57.828Z,102177.75
2023-12-15T19:52:26.085Z,102171.31
2023-12-15T19:54:53.820Z,102162.75
2023-12-15T19:57:21.492Z,102167.97
2023-12-15T19:59:49.322Z,102168.22
2023-12-15T20:02:17.084Z,102165.88
2023-12-15T20:04:46.304Z,102162.31
2023-12-15T20:07:14.160Z,102169.44
2023-12-15T20:09:41.858Z,102172.91
2023-12-15T20:12:10.292Z,102163.53
2023-12-15T20:14:37.927Z,102158.19
2023-12-15T20:17:06.001Z,102149.72
2023-12-15T20:19:33.672Z,102141.94
2023-12-15T20:22:02.716Z,102146.16
2023-12-15T20:24:30.458Z,102145.97
2023-12-15T20:26:58.815Z,102144.38
2023-12-15T20:29:26.570Z,102144.28
2023-12-15T20:31:55.343Z,102150.94
2023-12-15T20:34:23.102Z,102159.06
2023-12-15T20:36:51.247Z,102168.16
2023-12-15T20:39:20.252Z,102181.75
2023-12-15T20:41:47.816Z,102184.19
2023-12-15T20:44:16.211Z,102197.25
2023-12-15T20:46:45.780Z,102202.47
2023-12-15T20:49:14.103Z,102194.91
2023-12-15T20:51:41.847Z,102207.94
2023-12-15T20:54:09.524Z,102205.38
2023-12-15T20:56:38.694Z,102188.25
2023-12-15T20:59:06.385Z,102193.38
2023-12-15T21:01:36.273Z,102194.91
2023-12-15T21:04:04.583Z,102202.69
2023-12-15T21:06:33.344Z,102205.38
2023-12-15T21:09:01.259Z,102211.28
2023-12-15T21:11:30.262Z,102203.81
2023-12-15T21:13:59.272Z,102208.47
2023-12-15T21:16:28.445Z,102210.25
2023-12-15T21:18:57.489Z,102206.72
2023-12-15T21:21:30.725Z,102201.78
2023-12-15T21:23:58.498Z,102201.03
2023-12-15T21:26:26.241Z,102196.69
2023-12-15T21:28:55.849Z,102206.16
2023-12-15T21:31:25.296Z,102211.03
2023-12-15T21:33:53.333Z,102217.72
2023-12-15T21:36:21.171Z,102222.84
2023-12-15T21:38:48.955Z,102234.72
2023-12-15T21:41:17.403Z,102236.66
2023-12-15T21:43:45.024Z,102233.41
2023-12-15T21:46:12.592Z,102233.09
2023-12-15T21:48:41.913Z,102230.28
2023-12-15T21:51:09.661Z,102230.28
2023-12-15T21:53:37.390Z,102234.63
2023-12-15T21:56:06.901Z,102240.53
2023-12-15T21:58:34.511Z,102242.97
2023-12-15T22:01:02.163Z,102237.84
2023-12-15T22:03:29.816Z,102258.34
2023-12-15T22:05:59.525Z,102259.22
2023-12-15T22:08:28.307Z,102250.50
2023-12-15T22:10:55.935Z,102240.28
2023-12-15T22:13:23.628Z,102234.25
2023-12-15T22:15:51.290Z,102231.34
2023-12-15T22:18:20.889Z,102241.38
2023-12-15T22:20:48.634Z,102245.16
2023-12-15T22:23:17.672Z,102245.00
2023-12-15T22:25:45.316Z,102238.63
2023-12-15T22:28:13.052Z,102236.63
2023-12-15T22:30:43.721Z,102231.28
2023-12-15T22:33:11.765Z,102248.28
2023-12-15T22:35:40.114Z,102259.31
2023-12-15T22:38:07.731Z,102273.78
2023-12-15T22:40:36.858Z,102275.41
2023-12-15T22:43:05.499Z,102284.00
2023-12-15T22:45:33.236Z,102297.53
2023-12-15T22:48:00.838Z,102306.88
2023-12-15T22:50:28.976Z,102290.91
2023-12-15T22:52:56.672Z,102296.03
2023-12-15T22:55:24.478Z,102277.84
2023-12-15T22:57:53.657Z,102264.84
2023-12-15T23:00:27.459Z,102256.28
2023-12-15T23:02:55.079Z,102245.22
2023-12-15T23:05:22.747Z,102248.09
2023-12-15T23:07:50.795Z,102226.38
2023-12-15T23:10:18.387Z,102216.31
2023-12-15T23:12:46.558Z,102219.41
2023-12-15T23:15:20.956Z,102217.09
2023-12-15T23:17:51.736Z,102222.50
2023-12-15T23:20:19.461Z,102219.56
2023-12-15T23:22:47.145Z,102210.66
2023-12-15T23:25:14.950Z,102234.53
2023-12-15T23:27:43.012Z,102241.28
2023-12-15T23:30:12.032Z,102232.72
2023-12-15T23:32:41.519Z,102230.53
2023-12-15T23:35:10.140Z,102233.09
2023-12-15T23:37:38.033Z,102232.72
2023-12-15T23:40:06.914Z,102251.34
2023-12-15T23:42:34.508Z,102259.44
2023-12-15T23:45:02.153Z,102249.44
2023-12-15T23:47:29.822Z,102250.72
2023-12-15T23:49:58.999Z,102266.31
2023-12-15T23:52:27.533Z,102285.63
2023-12-15T23:54:55.344Z,102282.19
2023-12-15T23:57:23.022Z,102280.41
2023-12-15T23:59:50.624Z,102283.34
